Time;durP1;ratioP1;P1;durP2;ratioP2;P2;SDS_P1;SDS_P2;PMS_P1;PMS_P2;Temp;Humidity;BMP_temperature;BMP_pressure;BME280_temperature;BME280_humidity;BME280_pressure;Samples;Min_cycle;Max_cycle;Signal;HPM_P1;HPM_P2
2021/12/15 00:00:32;;;;;;;3.89;1.95;;;;;;;1.76;78.82;100668.13;367191;144;856977;-56
2021/12/15 00:01:35;;;;;;;4.74;2.36;;;;;;;1.87;78.26;100676.23;366147;144;857504;-55
2021/12/15 00:02:37;;;;;;;3.39;2.10;;;;;;;1.95;77.96;100666.30;368499;144;857233;-55
2021/12/15 00:03:39;;;;;;;7.47;2.89;;;;;;;2.07;77.95;100668.47;367136;144;857294;-57
2021/12/15 00:04:43;;;;;;;4.19;2.59;;;;;;;2.18;77.69;100675.74;364769;147;857309;-57
2021/12/15 00:05:46;;;;;;;4.05;2.56;;;;;;;;;;365006;146;859018;-56
2021/12/15 00:06:47;;;;;;;6.29;2.51;;;;;;;;;;363421;146;865756;-55
2021/12/15 00:07:50;;;;;;;3.98;2.70;;;;;;;;;;365443;147;859002;-55
2021/12/15 00:08:52;;;;;;;6.19;3.26;;;;;;;;;;365089;146;857062;-55
2021/12/15 00:09:54;;;;;;;10.73;4.41;;;;;;;;;;363858;146;858049;-55
2021/12/15 00:10:56;;;;;;;5.35;3.17;;;;;;;;;;363148;146;857766;-57
2021/12/15 00:11:57;;;;;;;4.73;3.13;;;;;;;;;;365456;147;857265;-54
2021/12/15 00:12:59;;;;;;;6.28;3.26;;;;;;;;;;363568;146;865366;-56
2021/12/15 00:14:01;;;;;;;7.97;3.63;;;;;;;;;;364780;147;865521;-56
2021/12/15 00:15:02;;;;;;;9.84;4.64;;;;;;;;;;365444;146;864811;-56
2021/12/15 00:16:04;;;;;;;8.33;4.61;;;;;;;;;;362398;146;859060;-56
2021/12/15 00:17:06;;;;;;;8.86;4.99;;;;;;;;;;364714;146;858930;-54
2021/12/15 00:18:08;;;;;;;12.22;6.62;;;;;;;;;;364464;147;858728;-55
2021/12/15 00:19:09;;;;;;;12.67;6.49;;;;;;;;;;362036;146;867811;-57
2021/12/15 00:20:14;;;;;;;7.85;4.46;;;;;;;;;;364959;146;867181;-56
2021/12/15 00:21:17;;;;;;;9.81;4.18;;;;;;;;;;364992;147;857218;-55
2021/12/15 00:22:19;;;;;;;16.79;5.80;;;;;;;;;;363549;147;858748;-55
2021/12/15 00:23:20;;;;;;;20.49;9.19;;;;;;;;;;365595;146;864899;-55
2021/12/15 00:24:22;;;;;;;9.22;4.64;;;;;;;;;;364786;147;867867;-55
2021/12/15 00:25:24;;;;;;;9.40;4.46;;;;;;;;;;364344;146;864822;-55
2021/12/15 00:26:26;;;;;;;8.87;4.61;;;;;;;;;;365373;147;865686;-55
2021/12/15 00:27:28;;;;;;;9.05;5.34;;;;;;;;;;364183;146;866017;-55
2021/12/15 00:28:30;;;;;;;9.88;5.74;;;;;;;;;;365330;147;857673;-55
2021/12/15 00:29:32;;;;;;;13.46;7.35;;;;;;;;;;364501;147;865467;-55
2021/12/15 00:30:33;;;;;;;12.65;6.06;;;;;;;;;;363704;146;857283;-55
2021/12/15 00:31:35;;;;;;;13.41;6.03;;;;;;;;;;363706;146;858973;-56
2021/12/15 00:32:37;;;;;;;8.74;4.86;;;;;;;;;;366049;147;865244;-56
2021/12/15 00:33:39;;;;;;;8.94;5.00;;;;;;;;;;365449;146;864965;-55
2021/12/15 00:34:41;;;;;;;8.75;5.11;;;;;;;;;;364126;146;866456;-55
2021/12/15 00:35:43;;;;;;;10.87;5.77;;;;;;;;;;366055;147;857762;-57
2021/12/15 00:36:45;;;;;;;10.42;5.63;;;;;;;;;;365084;146;857293;-55
2021/12/15 00:37:47;;;;;;;10.13;5.29;;;;;;;;;;364676;146;857254;-55
2021/12/15 00:38:49;;;;;;;19.03;8.63;;;;;;;;;;366099;147;857741;-55
2021/12/15 00:39:50;;;;;;;13.24;7.95;;;;;;;;;;365265;147;857167;-55
2021/12/15 00:40:52;;;;;;;16.54;7.63;;;;;;;;;;365394;146;865697;-55
2021/12/15 00:41:54;;;;;;;13.33;6.56;;;;;;;;;;365677;146;864877;-55
2021/12/15 00:42:56;;;;;;;12.48;6.24;;;;;;;;;;365835;147;864975;-55
2021/12/15 00:43:58;;;;;;;12.11;6.03;;;;;;;;;;365337;146;865916;-55
2021/12/15 00:45:00;;;;;;;11.74;6.73;;;;;;;;;;365803;146;857727;-55
2021/12/15 00:46:02;;;;;;;12.97;6.94;;;;;;;;;;361457;147;865501;-55
2021/12/15 00:47:04;;;;;;;13.55;6.87;;;;;;;;;;361295;146;859000;-55
2021/12/15 00:48:05;;;;;;;16.87;6.81;;;;;;;;;;364412;146;857770;-55
2021/12/15 00:49:07;;;;;;;11.48;5.86;;;;;;;;;;365503;147;859825;-56
2021/12/15 00:50:09;;;;;;;12.05;6.83;;;;;;;;;;362635;147;864997;-56
2021/12/15 00:51:11;;;;;;;16.57;9.30;;;;;;;;;;363864;146;857438;-55
2021/12/15 00:52:12;;;;;;;12.94;6.65;;;;;;;;;;364401;146;857329;-55
2021/12/15 00:53:14;;;;;;;15.51;7.05;;;;;;;;;;365374;147;866802;-57
2021/12/15 00:54:16;;;;;;;13.67;7.96;;;;;;;;;;363476;147;864091;-55
2021/12/15 00:55:19;;;;;;;16.16;7.71;;;;;;;;;;362875;146;864946;-55
2021/12/15 00:56:21;;;;;;;15.06;6.62;;;;;;;;;;365280;147;865987;-55
2021/12/15 00:57:23;;;;;;;13.66;7.21;;;;;;;;;;361031;147;857245;-55
2021/12/15 00:58:25;;;;;;;12.24;6.42;;;;;;;;;;363165;146;864993;-55
2021/12/15 00:59:26;;;;;;;10.84;6.04;;;;;;;;;;363178;146;864965;-55
2021/12/15 01:00:30;;;;;;;14.55;6.54;;;;;;;;;;364177;147;865928;-55
2021/12/15 01:01:32;;;;;;;13.72;6.33;;;;;;;;;;364143;146;865088;-55
2021/12/15 01:02:34;;;;;;;11.82;6.15;;;;;;;;;;361724;147;859140;-55
2021/12/15 01:03:35;;;;;;;11.83;6.50;;;;;;;;;;366029;147;859184;-57
2021/12/15 01:04:37;;;;;;;12.16;6.28;;;;;;;;;;363779;146;857243;-55
2021/12/15 01:05:41;;;;;;;13.61;6.59;;;;;;;;;;363673;146;864997;-55
2021/12/15 01:06:44;;;;;;;16.25;8.12;;;;;;;;;;363515;147;865942;-55
2021/12/15 01:07:46;;;;;;;14.66;6.76;;;;;;;;;;363213;146;864905;-55
2021/12/15 01:08:52;;;;;;;13.66;7.09;;;;;;;;;;364623;146;859790;-57
2021/12/15 01:09:55;;;;;;;12.61;7.00;;;;;;;;;;359922;146;864930;-57
2021/12/15 01:11:10;;;;;;;12.36;7.11;;;;;;;;;;364593;147;857105;-57
2021/12/15 01:14:33;;;;;;;13.79;7.21;;;;;;;;;;365915;147;857898;-55
2021/12/15 01:20:52;;;;;;;20.67;6.43;;;;;;;;;;361383;147;859410;-55
2021/12/15 01:21:54;;;;;;;14.43;7.00;;;;;;;;;;363150;146;857960;-57
2021/12/15 01:22:58;;;;;;;13.94;7.37;;;;;;;;;;364928;146;860989;-55
2021/12/15 01:23:59;;;;;;;14.68;7.03;;;;;;;;;;365467;146;859171;-55
2021/12/15 01:25:03;;;;;;;16.16;7.51;;;;;;;;;;364428;146;857820;-55
2021/12/15 01:26:12;;;;;;;14.61;6.67;;;;;;;;;;363709;146;866674;-55
2021/12/15 01:27:13;;;;;;;12.38;6.41;;;;;;;;;;359743;146;865101;-55
2021/12/15 01:28:15;;;;;;;9.88;5.54;;;;;;;;;;365229;147;857339;-55
2021/12/15 01:29:17;;;;;;;14.36;7.50;;;;;;;;;;364583;146;857224;-55
2021/12/15 01:30:20;;;;;;;11.98;6.63;;;;;;;;;;363689;146;866267;-55
2021/12/15 01:31:22;;;;;;;12.79;6.82;;;;;;;;;;363389;147;857243;-54
2021/12/15 01:32:23;;;;;;;15.59;8.02;;;;;;;;;;363442;147;857115;-54
2021/12/15 01:33:25;;;;;;;14.88;7.96;;;;;;;;;;364685;146;857301;-55
2021/12/15 01:34:27;;;;;;;13.22;7.35;;;;;;;;;;362417;147;859184;-55
2021/12/15 01:35:28;;;;;;;11.81;6.95;;;;;;;;;;363328;147;857210;-55
2021/12/15 01:36:30;;;;;;;15.39;7.83;;;;;;;;;;364711;147;868322;-54
2021/12/15 01:37:31;;;;;;;14.31;7.07;;;;;;;;;;365450;146;864810;-57
2021/12/15 01:38:34;;;;;;;15.69;7.39;;;;;;;;;;363444;147;866026;-54
2021/12/15 01:39:35;;;;;;;12.39;7.06;;;;;;;;;;365239;147;864916;-56
2021/12/15 01:40:39;;;;;;;12.77;6.39;;;;;;;;;;363587;146;857377;-56
2021/12/15 01:41:42;;;;;;;11.99;6.92;;;;;;;;;;360940;147;866503;-56
2021/12/15 01:42:45;;;;;;;13.05;6.51;;;;;;;;;;365760;147;857179;-56
2021/12/15 01:46:53;;;;;;;14.86;5.87;;;;;;;;;;363989;146;857273;-56
2021/12/15 01:47:35;;;;;;;;;;;;;;;;;;367796;146;855907;-56
2021/12/15 01:48:36;;;;;;;12.47;5.84;;;;;;;;;;364004;147;857123;-55
2021/12/15 01:49:39;;;;;;;12.86;6.31;;;;;;;;;;361469;147;859363;-56
2021/12/15 01:50:42;;;;;;;33.88;12.58;;;;;;;;;;364190;146;864936;-56
2021/12/15 01:51:43;;;;;;;26.89;11.14;;;;;;;;;;364196;146;857658;-56
2021/12/15 01:52:45;;;;;;;11.13;6.51;;;;;;;;;;364167;147;857226;-55
2021/12/15 01:53:47;;;;;;;19.74;7.92;;;;;;;;;;355544;150;864956;-55
2021/12/15 01:54:53;;;;;;;13.77;7.27;;;;;;;;;;362178;146;857187;-57
2021/12/15 01:55:55;;;;;;;14.26;6.09;;;;;;;;;;361959;147;865020;-55
2021/12/15 01:56:56;;;;;;;16.29;6.80;;;;;;;;;;363414;147;859217;-55
2021/12/15 01:57:58;;;;;;;12.11;6.69;;;;;;;;;;361082;147;866568;-55
2021/12/15 01:59:00;;;;;;;11.36;6.22;;;;;;;;;;357688;147;857296;-55
2021/12/15 02:00:03;;;;;;;17.40;6.66;;;;;;;;;;360067;149;865753;-55
2021/12/15 02:01:05;;;;;;;13.38;6.55;;;;;;;;;;360319;147;865406;-55
2021/12/15 02:02:07;;;;;;;12.23;6.65;;;;;;;;;;360714;147;860712;-55
2021/12/15 02:03:09;;;;;;;10.32;5.66;;;;;;;;;;359486;147;857191;-55
2021/12/15 02:04:11;;;;;;;16.24;6.71;;;;;;;;;;357734;147;865048;-55
2021/12/15 02:05:12;;;;;;;12.72;5.95;;;;;;;;;;359908;147;867452;-55
2021/12/15 02:06:14;;;;;;;11.47;6.49;;;;;;;;;;358228;149;865133;-56
2021/12/15 02:07:17;;;;;;;15.76;6.01;;;;;;;;;;357637;147;857383;-55
2021/12/15 02:08:19;;;;;;;18.34;6.33;;;;;;;;;;360279;147;867187;-55
2021/12/15 02:09:41;;;;;;;10.31;6.18;;;;;;;;;;358745;147;857292;-55
2021/12/15 02:10:27;;;;;;;15.32;5.88;;;;;;;;;;357855;149;864923;-56
2021/12/15 02:11:28;;;;;;;15.57;6.26;;;;;;;;;;359958;148;860645;-55
2021/12/15 02:12:34;;;;;;;15.24;6.64;;;;;;;;;;359661;147;865400;-55
2021/12/15 02:13:35;;;;;;;11.47;5.92;;;;;;;;;;359777;147;865453;-54
2021/12/15 02:14:36;;;;;;;13.32;6.41;;;;;;;;;;356508;148;865043;-55
2021/12/15 02:15:40;;;;;;;16.24;6.57;;;;;;;;;;360334;147;867802;-55
2021/12/15 02:16:41;;;;;;;11.04;6.55;;;;;;;;;;358882;147;865025;-55
2021/12/15 02:17:43;;;;;;;12.34;6.01;;;;;;;;;;356650;147;864963;-57
2021/12/15 02:18:45;;;;;;;16.61;6.71;;;;;;;;;;360570;147;865768;-55
2021/12/15 02:19:47;;;;;;;16.37;6.61;;;;;;;;;;360365;148;857738;-55
2021/12/15 02:20:50;;;;;;;13.68;6.75;;;;;;;;;;360844;147;857233;-55
2021/12/15 02:21:53;;;;;;;13.80;6.74;;;;;;;;;;359504;147;867219;-55
2021/12/15 02:22:54;;;;;;;13.31;6.86;;;;;;;;;;361046;146;858200;-55
2021/12/15 02:23:58;;;;;;;13.87;6.86;;;;;;;;;;360274;146;858528;-55
2021/12/15 02:25:01;;;;;;;13.68;6.67;;;;;;;;;;363590;147;865051;-55
2021/12/15 02:26:07;;;;;;;17.02;7.14;;;;;;;;;;360491;147;857414;-55
2021/12/15 02:27:11;;;;;;;18.18;6.86;;;;;;;;;;357402;147;857539;-55
2021/12/15 02:28:11;;;;;;;15.29;7.42;;;;;;;;;;359837;149;857311;-55
2021/12/15 02:29:17;;;;;;;13.92;6.44;;;;;;;;;;361310;146;858499;-57
2021/12/15 02:30:41;;;;;;;11.59;6.56;;;;;;;;;;360792;147;867135;-57
2021/12/15 02:31:40;;;;;;;;;;;;;;;;;;360403;149;858343;-55
2021/12/15 02:32:49;;;;;;;10.82;5.63;;;;;;;;;;360737;148;859120;-55
2021/12/15 02:37:19;;;;;;;11.69;6.52;;;;;;;;;;360756;147;857814;-55
2021/12/15 02:38:28;;;;;;;17.32;7.22;;;;;;;;;;361788;147;858732;-56
2021/12/15 02:39:30;;;;;;;15.03;6.71;;;;;;;;;;359860;147;857234;-56
2021/12/15 02:40:32;;;;;;;12.27;7.55;;;;;;;;;;360253;146;857101;-56
2021/12/15 02:41:34;;;;;;;13.79;6.39;;;;;;;;;;356826;147;857778;-56
2021/12/15 02:42:40;;;;;;;13.64;6.50;;;;;;;;;;359862;143;858010;-56
2021/12/15 02:43:41;;;;;;;9.31;6.63;;;;;;;;;;368813;142;860366;-56
2021/12/15 02:44:43;;;;;;;14.62;6.54;;;;;;;;;;361272;147;859050;-55
2021/12/15 02:45:45;;;;;;;12.58;6.82;;;;;;;;;;363771;146;863684;-55
2021/12/15 02:46:46;;;;;;;11.54;6.63;;;;;;;;;;365152;145;856457;-56
2021/12/15 02:47:48;;;;;;;14.54;6.76;;;;;;;;;;361624;146;863749;-55
2021/12/15 02:48:50;;;;;;;10.79;6.39;;;;;;;;;;363760;145;863723;-55
2021/12/15 02:49:52;;;;;;;9.82;6.12;;;;;;;;;;363063;146;856007;-55
2021/12/15 02:50:53;;;;;;;13.26;6.93;;;;;;;;;;363643;146;864295;-55
2021/12/15 02:51:57;;;;;;;14.03;6.67;;;;;;;;;;367417;145;856699;-55
2021/12/15 02:52:59;;;;;;;12.58;6.78;;;;;;;;;;360621;145;863686;-55
2021/12/15 02:54:00;;;;;;;13.23;6.86;;;;;;;;;;364213;145;859103;-55
2021/12/15 02:55:03;;;;;;;12.64;6.63;;;;;;;;;;363681;147;863854;-55
2021/12/15 02:56:05;;;;;;;10.40;6.57;;;;;;;;;;364956;147;856443;-55
2021/12/15 02:57:10;;;;;;;14.21;8.04;;;;;;;;;;365663;145;863979;-55
2021/12/15 02:58:10;;;;;;;13.65;6.94;;;;;;;;;;363059;146;863785;-55
2021/12/15 02:59:14;;;;;;;14.72;6.84;;;;;;;;;;364953;145;856210;-56
2021/12/15 03:00:18;;;;;;;16.22;7.81;;;;;;;;;;363521;145;856139;-56
2021/12/15 03:01:30;;;;;;;12.49;6.86;;;;;;;;;;362285;146;856699;-56
2021/12/15 03:02:59;;;;;;;17.99;7.22;;;;;;;;;;360147;146;856246;-55
2021/12/15 03:05:37;;;;;;;20.28;6.89;;;;;;;1.22;78.83;100642.98;371544;141;881817;-55
2021/12/15 03:06:44;;;;;;;13.58;5.79;;;;;;;1.15;78.96;100646.98;358927;147;857143;-56
2021/12/15 03:08:17;;;;;;;10.77;5.48;;;;;;;1.19;78.88;100648.85;363293;147;858861;-56
2021/12/15 03:08:55;;;;;;;8.31;5.12;;;;;;;;;;351542;147;857864;-57
2021/12/15 03:15:33;;;;;;;12.44;6.12;;;;;;;;;;362436;146;857628;-55
2021/12/15 03:16:34;;;;;;;11.72;6.06;;;;;;;;;;363818;147;857910;-55
2021/12/15 03:17:35;;;;;;;12.15;6.65;;;;;;;;;;363055;147;857349;-57
2021/12/15 03:18:37;;;;;;;10.79;6.61;;;;;;;;;;363297;146;864904;-55
2021/12/15 03:19:38;;;;;;;12.71;6.47;;;;;;;;;;363504;147;866085;-55
2021/12/15 03:20:46;;;;;;;11.87;6.14;;;;;;;;;;365297;147;865058;-56
2021/12/15 03:21:48;;;;;;;10.57;6.45;;;;;;;;;;361524;146;864935;-56
2021/12/15 03:22:51;;;;;;;14.68;6.60;;;;;;;;;;363975;146;857178;-56
2021/12/15 03:23:55;;;;;;;21.75;7.92;;;;;;;;;;365016;147;860017;-56
2021/12/15 03:24:57;;;;;;;12.32;6.62;;;;;;;;;;363639;147;865403;-55
2021/12/15 03:25:59;;;;;;;12.39;7.29;;;;;;;;;;362088;147;857107;-55
2021/12/15 03:27:06;;;;;;;12.39;7.41;;;;;;;;;;363499;147;865608;-55
2021/12/15 03:33:42;;;;;;;12.76;6.34;;;;;;;;;;360197;147;857248;-55
2021/12/15 03:35:01;;;;;;;15.35;7.67;;;;;;;;;;359671;147;857697;-55
2021/12/15 03:36:06;;;;;;;13.21;6.42;;;;;;;;;;360586;146;857614;-55
2021/12/15 03:37:09;;;;;;;10.59;5.52;;;;;;;;;;360739;147;858201;-55
2021/12/15 03:38:08;;;;;;;13.38;7.12;;;;;;;;;;360381;147;857336;-55
2021/12/15 03:39:10;;;;;;;15.43;7.66;;;;;;;;;;361453;147;859509;-55
2021/12/15 03:40:16;;;;;;;12.24;6.93;;;;;;;;;;362986;147;865622;-55
2021/12/15 03:41:19;;;;;;;19.87;9.24;;;;;;;;;;363372;147;857365;-54
2021/12/15 03:42:25;;;;;;;15.96;8.38;;;;;;;;;;360999;146;859182;-54
2021/12/15 03:43:26;;;;;;;12.92;7.58;;;;;;;;;;362283;146;858887;-55
2021/12/15 03:44:29;;;;;;;13.94;7.50;;;;;;;;;;364180;147;859216;-55
2021/12/15 03:45:32;;;;;;;10.93;5.77;;;;;;;;;;363912;147;866691;-55
2021/12/15 03:46:34;;;;;;;12.06;6.61;;;;;;;;;;362512;146;857636;-55
2021/12/15 03:47:37;;;;;;;11.78;6.80;;;;;;;;;;363133;146;859839;-58
2021/12/15 03:48:40;;;;;;;10.69;6.21;;;;;;;;;;362500;147;859376;-54
2021/12/15 03:49:42;;;;;;;9.99;6.15;;;;;;;;;;362549;146;857757;-55
2021/12/15 03:50:44;;;;;;;11.51;6.46;;;;;;;;;;361432;146;865864;-55
2021/12/15 03:51:45;;;;;;;8.97;5.77;;;;;;;;;;365158;147;857255;-56
2021/12/15 03:52:50;;;;;;;10.89;6.42;;;;;;;;;;363132;147;857281;-54
2021/12/15 03:53:52;;;;;;;9.98;6.18;;;;;;;;;;363458;147;865399;-54
2021/12/15 03:54:54;;;;;;;13.83;6.56;;;;;;;;;;363910;147;857261;-55
2021/12/15 03:55:55;;;;;;;11.75;6.32;;;;;;;;;;366114;147;857293;-54
2021/12/15 03:56:57;;;;;;;13.85;6.77;;;;;;;;;;362988;146;858183;-55
2021/12/15 03:57:59;;;;;;;14.19;7.12;;;;;;;;;;362946;147;864846;-55
2021/12/15 03:59:01;;;;;;;11.85;6.65;;;;;;;;;;361815;147;865314;-56
2021/12/15 04:00:04;;;;;;;10.30;6.19;;;;;;;;;;361673;146;857322;-54
2021/12/15 04:01:07;;;;;;;12.41;6.18;;;;;;;;;;362360;146;859545;-54
2021/12/15 04:02:10;;;;;;;13.25;6.13;;;;;;;;;;362625;147;866115;-57
2021/12/15 04:03:16;;;;;;;11.83;5.71;;;;;;;;;;364351;146;858228;-55
2021/12/15 04:04:17;;;;;;;12.22;6.49;;;;;;;;;;361658;146;865453;-55
2021/12/15 04:05:19;;;;;;;15.31;7.30;;;;;;;;;;359691;147;859988;-55
2021/12/15 04:06:23;;;;;;;10.09;5.76;;;;;;;;;;363498;148;866381;-54
2021/12/15 04:07:24;;;;;;;13.99;7.41;;;;;;;;;;360407;146;856080;-55
2021/12/15 04:08:26;;;;;;;12.17;7.59;;;;;;;;;;361679;146;857263;-55
2021/12/15 04:09:28;;;;;;;13.96;7.03;;;;;;;;;;361334;147;864882;-55
2021/12/15 04:10:29;;;;;;;15.61;7.67;;;;;;;;;;362130;147;866235;-55
2021/12/15 04:11:34;;;;;;;13.26;6.54;;;;;;;;;;362622;146;859174;-55
2021/12/15 04:12:36;;;;;;;12.61;7.23;;;;;;;;;;359115;147;865854;-55
2021/12/15 04:13:38;;;;;;;14.58;8.18;;;;;;;;;;361083;147;857263;-56
2021/12/15 04:14:45;;;;;;;18.20;8.88;;;;;;;;;;363039;146;864979;-55
2021/12/15 04:16:03;;;;;;;10.01;5.91;;;;;;;;;;363140;147;859215;-53
2021/12/15 04:17:02;;;;;;;7.56;4.73;;;;;;;;;;362738;147;858542;-57
2021/12/15 04:18:03;;;;;;;13.11;6.97;;;;;;;;;;363064;147;857340;-55
2021/12/15 04:19:13;;;;;;;13.05;6.91;;;;;;;;;;360312;146;858374;-55
2021/12/15 04:20:16;;;;;;;11.69;6.67;;;;;;;;;;363646;147;858620;-55
2021/12/15 04:21:17;;;;;;;11.34;5.99;;;;;;;;;;362424;146;864593;-55
2021/12/15 04:22:19;;;;;;;11.94;6.97;;;;;;;;;;362240;146;857258;-55
2021/12/15 04:23:20;;;;;;;13.85;7.56;;;;;;;;;;360030;147;864094;-55
2021/12/15 04:24:25;;;;;;;13.26;7.60;;;;;;;;;;361709;147;866149;-56
2021/12/15 04:25:27;;;;;;;13.58;8.01;;;;;;;;;;355461;149;867154;-54
2021/12/15 04:26:29;;;;;;;11.44;5.97;;;;;;;;;;362826;147;865205;-58
2021/12/15 04:27:31;;;;;;;10.97;6.02;;;;;;;;;;364001;147;857741;-55
2021/12/15 04:28:34;;;;;;;22.31;14.24;;;;;;;;;;361967;146;865551;-55
2021/12/15 04:29:36;;;;;;;22.89;13.15;;;;;;;;;;360469;146;864783;-55
2021/12/15 04:30:39;;;;;;;18.29;9.37;;;;;;;;;;361843;147;857359;-55
2021/12/15 04:31:43;;;;;;;15.93;8.35;;;;;;;;;;363348;146;859769;-55
2021/12/15 04:32:45;;;;;;;14.03;7.17;;;;;;;;;;362699;147;857673;-54
2021/12/15 04:33:54;;;;;;;11.28;6.32;;;;;;;;;;361597;147;856323;-54
2021/12/15 04:34:55;;;;;;;14.95;7.84;;;;;;;;;;360183;147;857575;-55
2021/12/15 04:35:56;;;;;;;13.35;7.96;;;;;;;;;;360705;146;859286;-55
2021/12/15 04:36:58;;;;;;;11.00;7.21;;;;;;;;;;362320;147;857210;-55
2021/12/15 04:38:00;;;;;;;13.39;7.76;;;;;;;;;;364191;147;857082;-55
2021/12/15 04:39:02;;;;;;;13.77;7.66;;;;;;;;;;362829;146;866423;-55
2021/12/15 04:40:04;;;;;;;15.11;8.10;;;;;;;;;;361615;147;865520;-55
2021/12/15 04:41:07;;;;;;;12.53;7.86;;;;;;;;;;362169;147;858106;-55
2021/12/15 04:42:11;;;;;;;12.84;7.30;;;;;;;;;;362739;147;857396;-56
2021/12/15 04:43:12;;;;;;;14.29;7.32;;;;;;;;;;364209;147;858932;-55
2021/12/15 04:44:15;;;;;;;18.82;10.46;;;;;;;;;;361989;147;858452;-55
2021/12/15 04:45:17;;;;;;;19.26;11.44;;;;;;;;;;361933;147;864520;-55
2021/12/15 04:46:19;;;;;;;14.94;7.89;;;;;;;;;;361585;146;856896;-55
2021/12/15 04:47:21;;;;;;;12.54;7.41;;;;;;;;;;363585;147;866743;-55
2021/12/15 04:48:23;;;;;;;14.26;7.87;;;;;;;;;;361000;147;863780;-55
2021/12/15 04:49:25;;;;;;;13.94;7.87;;;;;;;;;;362823;146;865414;-56
2021/12/15 04:50:27;;;;;;;15.77;7.67;;;;;;;;;;361962;146;864907;-54
2021/12/15 04:51:30;;;;;;;12.09;7.25;;;;;;;;;;361420;147;856064;-55
2021/12/15 04:52:32;;;;;;;8.29;5.52;;;;;;;;;;362577;147;857993;-56
2021/12/15 04:53:34;;;;;;;12.88;7.59;;;;;;;;;;363105;147;857673;-55
2021/12/15 04:54:36;;;;;;;13.85;7.71;;;;;;;;;;364164;147;859204;-55
2021/12/15 04:55:38;;;;;;;15.01;8.03;;;;;;;;;;362682;147;857601;-56
2021/12/15 04:56:40;;;;;;;15.49;8.56;;;;;;;;;;363196;147;857704;-55
2021/12/15 04:57:41;;;;;;;13.37;7.29;;;;;;;;;;361302;147;858767;-55
2021/12/15 04:58:43;;;;;;;11.86;6.28;;;;;;;;;;362555;147;864895;-56
2021/12/15 04:59:45;;;;;;;14.81;7.69;;;;;;;;;;362345;147;866520;-55
2021/12/15 05:00:51;;;;;;;13.64;6.92;;;;;;;;;;362230;146;865039;-54
2021/12/15 05:01:52;;;;;;;14.24;7.69;;;;;;;;;;359945;147;865808;-57
2021/12/15 05:02:55;;;;;;;13.87;7.58;;;;;;;;;;363600;147;859109;-60
2021/12/15 05:03:57;;;;;;;13.28;7.52;;;;;;;;;;354723;149;857110;-57
2021/12/15 05:04:58;;;;;;;14.29;7.41;;;;;;;;;;364082;147;858501;-58
2021/12/15 05:06:00;;;;;;;10.64;6.37;;;;;;;;;;364713;147;865189;-61
2021/12/15 05:07:01;;;;;;;12.38;6.96;;;;;;;;;;362787;146;866746;-58
2021/12/15 05:08:04;;;;;;;15.96;6.54;;;;;;;;;;362392;146;864963;-55
2021/12/15 05:09:05;;;;;;;9.38;6.14;;;;;;;;;;363675;147;867103;-55
2021/12/15 05:10:08;;;;;;;12.98;6.69;;;;;;;;;;362002;146;857311;-57
2021/12/15 05:11:10;;;;;;;10.02;6.61;;;;;;;;;;363422;146;857316;-55
2021/12/15 05:12:12;;;;;;;12.41;6.84;;;;;;;;;;362909;145;867225;-55
2021/12/15 05:13:13;;;;;;;13.80;7.16;;;;;;;;;;361979;146;857370;-62
2021/12/15 05:14:15;;;;;;;12.12;7.46;;;;;;;;;;363829;146;865408;-59
2021/12/15 05:15:17;;;;;;;12.19;6.93;;;;;;;;;;364705;147;864893;-54
2021/12/15 05:16:20;;;;;;;14.58;7.16;;;;;;;;;;359697;147;864683;-54
2021/12/15 05:17:21;;;;;;;11.68;6.93;;;;;;;;;;361774;147;858495;-55
2021/12/15 05:18:23;;;;;;;13.63;8.11;;;;;;;;;;364295;147;864868;-55
2021/12/15 05:19:26;;;;;;;13.79;7.21;;;;;;;;;;360871;147;864511;-54
2021/12/15 05:20:28;;;;;;;9.58;5.81;;;;;;;;;;361335;146;864799;-54
2021/12/15 05:21:31;;;;;;;13.01;6.17;;;;;;;;;;361675;146;858784;-55
2021/12/15 05:22:33;;;;;;;11.74;6.30;;;;;;;;;;364033;147;858605;-55
2021/12/15 05:23:34;;;;;;;10.15;5.91;;;;;;;;;;361003;146;857724;-55
2021/12/15 05:24:36;;;;;;;10.51;6.27;;;;;;;;;;365195;146;858784;-56
2021/12/15 05:25:38;;;;;;;8.27;5.49;;;;;;;;;;362331;147;864856;-54
2021/12/15 05:26:40;;;;;;;10.01;5.52;;;;;;;;;;365820;147;865675;-54
2021/12/15 05:27:41;;;;;;;9.48;5.99;;;;;;;;;;361093;147;864979;-55
2021/12/15 05:28:43;;;;;;;10.19;4.79;;;;;;;;;;362102;146;858553;-55
2021/12/15 05:29:46;;;;;;;9.34;5.67;;;;;;;;;;361782;147;865467;-56
2021/12/15 05:30:47;;;;;;;8.69;5.83;;;;;;;;;;362094;146;857292;-54
2021/12/15 05:31:49;;;;;;;9.52;5.43;;;;;;;;;;362877;146;859728;-54
2021/12/15 05:32:51;;;;;;;9.96;5.13;;;;;;;;;;364585;147;867276;-54
2021/12/15 05:33:52;;;;;;;7.51;4.77;;;;;;;;;;363558;147;865395;-56
2021/12/15 05:34:56;;;;;;;8.14;4.98;;;;;;;;;;361954;147;864761;-55
2021/12/15 05:35:57;;;;;;;6.43;4.69;;;;;;;;;;363077;146;857835;-58
2021/12/15 05:36:59;;;;;;;9.28;4.88;;;;;;;;;;364420;147;859382;-56
2021/12/15 05:38:01;;;;;;;8.60;5.16;;;;;;;;;;364047;147;865997;-54
2021/12/15 05:39:06;;;;;;;8.38;4.98;;;;;;;;;;364273;147;858056;-54
2021/12/15 05:40:08;;;;;;;8.41;4.63;;;;;;;;;;360385;147;857816;-55
2021/12/15 05:41:10;;;;;;;8.57;5.03;;;;;;;;;;362223;147;857197;-55
2021/12/15 05:42:11;;;;;;;6.88;4.61;;;;;;;;;;362794;146;857305;-54
2021/12/15 05:43:13;;;;;;;15.16;7.54;;;;;;;;;;362438;147;865021;-53
2021/12/15 05:44:15;;;;;;;9.74;5.23;;;;;;;;;;363524;147;865025;-54
2021/12/15 05:45:17;;;;;;;8.80;5.23;;;;;;;;;;364739;146;864627;-53
2021/12/15 05:46:18;;;;;;;8.96;5.22;;;;;;;;;;361904;147;857853;-55
2021/12/15 05:47:20;;;;;;;9.81;4.68;;;;;;;;;;361166;147;857247;-55
2021/12/15 05:48:22;;;;;;;11.02;5.14;;;;;;;;;;360774;147;865826;-53
2021/12/15 05:49:23;;;;;;;9.28;4.90;;;;;;;;;;363208;146;866557;-54
2021/12/15 05:50:26;;;;;;;9.77;5.13;;;;;;;;;;362917;147;864983;-54
2021/12/15 05:51:27;;;;;;;8.29;5.07;;;;;;;;;;363591;147;858812;-54
2021/12/15 05:52:30;;;;;;;9.81;5.06;;;;;;;;;;362718;146;858908;-57
2021/12/15 05:53:31;;;;;;;8.15;5.47;;;;;;;;;;363738;147;864718;-57
2021/12/15 05:54:33;;;;;;;10.12;5.14;;;;;;;;;;362230;147;858106;-55
2021/12/15 05:55:37;;;;;;;6.81;4.39;;;;;;;;;;361431;146;864952;-54
2021/12/15 05:56:39;;;;;;;9.17;5.39;;;;;;;;;;364667;146;857107;-54
2021/12/15 05:57:40;;;;;;;7.11;4.39;;;;;;;;;;364829;147;864975;-55
2021/12/15 05:58:42;;;;;;;8.13;4.66;;;;;;;;;;362249;147;857881;-54
2021/12/15 05:59:44;;;;;;;7.83;4.76;;;;;;;;;;362936;146;864759;-54
2021/12/15 06:00:46;;;;;;;8.07;4.64;;;;;;;;;;361983;147;866279;-55
2021/12/15 06:01:47;;;;;;;8.12;4.77;;;;;;;;;;363464;147;864869;-54
2021/12/15 06:02:49;;;;;;;12.09;5.83;;;;;;;;;;362345;147;857285;-55
2021/12/15 06:03:51;;;;;;;8.54;5.03;;;;;;;;;;363924;146;865603;-55
2021/12/15 06:04:52;;;;;;;5.79;4.32;;;;;;;;;;362644;147;865739;-54
2021/12/15 06:05:54;;;;;;;8.66;5.81;;;;;;;;;;362288;147;864730;-55
2021/12/15 06:06:55;;;;;;;8.56;5.14;;;;;;;;;;363610;147;864441;-54
2021/12/15 06:07:57;;;;;;;9.07;5.35;;;;;;;;;;361166;147;864108;-54
2021/12/15 06:08:59;;;;;;;12.81;4.82;;;;;;;;;;361178;147;865879;-54
2021/12/15 06:10:00;;;;;;;6.56;4.73;;;;;;;;;;364227;146;864949;-54
2021/12/15 06:11:03;;;;;;;8.59;4.93;;;;;;;;;;361421;147;864851;-53
2021/12/15 06:12:05;;;;;;;7.56;4.53;;;;;;;;;;361340;147;865524;-53
2021/12/15 06:13:07;;;;;;;7.09;4.45;;;;;;;;;;363404;147;859552;-54
2021/12/15 06:14:09;;;;;;;7.39;4.58;;;;;;;;;;362050;146;857644;-54
2021/12/15 06:15:11;;;;;;;6.57;4.04;;;;;;;;;;359641;147;858904;-54
2021/12/15 06:16:14;;;;;;;7.99;3.99;;;;;;;;;;361425;147;866666;-54
2021/12/15 06:17:16;;;;;;;7.65;4.73;;;;;;;;;;363745;146;859166;-54
2021/12/15 06:18:18;;;;;;;6.24;3.93;;;;;;;;;;361867;148;863834;-54
2021/12/15 06:19:20;;;;;;;6.52;4.33;;;;;;;;;;362853;147;865445;-54
2021/12/15 06:20:22;;;;;;;6.42;4.29;;;;;;;;;;363508;146;857105;-54
2021/12/15 06:21:24;;;;;;;6.21;4.17;;;;;;;;;;360389;147;857204;-54
2021/12/15 06:22:27;;;;;;;6.99;4.16;;;;;;;;;;360771;147;857296;-54
2021/12/15 06:23:30;;;;;;;4.91;3.79;;;;;;;;;;362276;147;864721;-54
2021/12/15 06:24:31;;;;;;;7.64;3.20;;;;;;;;;;361028;146;858534;-53
2021/12/15 06:25:33;;;;;;;5.02;3.43;;;;;;;;;;359572;147;866584;-53
2021/12/15 06:26:35;;;;;;;5.02;3.53;;;;;;;;;;361956;146;864790;-53
2021/12/15 06:27:37;;;;;;;5.35;3.61;;;;;;;;;;362700;146;859232;-53
2021/12/15 06:28:38;;;;;;;6.03;3.60;;;;;;;;;;362329;147;857723;-53
2021/12/15 06:29:40;;;;;;;5.33;3.44;;;;;;;;;;362676;147;859132;-53
2021/12/15 06:30:44;;;;;;;6.84;3.89;;;;;;;;;;361964;146;864809;-55